Time,TemperatureF,DewpointF,PressureIn,WindDirection,WindDirectionDegrees,WindSpeedMPH,WindSpeedGustMPH,Humidity,HourlyPrecipIn,Conditions,Clouds,dailyrainin,SoftwareType,DateUTC
2013-04-17 00:00:00,40.0,32.9,29.93,North,0,0.0,0.0,76,0.00,,,0.00,WUHU216HW,2013-04-17 07:00:00,
2013-04-17 00:05:00,39.8,32.8,29.93,North,0,0.0,0.0,76,0.00,,,0.00,WUHU216HW,2013-04-17 07:05:00,
2013-04-17 00:10:00,39.8,33.1,29.93,North,0,0.0,0.0,77,0.00,,,0.00,WUHU216HW,2013-04-17 07:10:00,
2013-04-17 00:15:00,39.6,32.9,29.93,North,0,0.0,0.0,77,0.00,,,0.00,WUHU216HW,2013-04-17 07:15:00,
2013-04-17 00:20:00,39.2,32.7,29.93,North,0,0.0,0.0,77,0.00,,,0.00,WUHU216HW,2013-04-17 07:20:00,
2013-04-17 00:25:00,39.1,32.5,29.93,North,0,0.0,0.0,77,0.00,,,0.00,WUHU216HW,2013-04-17 07:25:00,
2013-04-17 00:30:00,38.9,32.3,29.93,North,0,0.0,0.0,77,0.00,,,0.00,WUHU216HW,2013-04-17 07:30:00,
2013-04-17 00:35:00,38.7,32.1,29.93,North,0,0.0,0.0,77,0.00,,,0.00,WUHU216HW,2013-04-17 07:35:00,
2013-04-17 00:40:00,38.7,32.5,29.93,North,0,0.0,0.0,78,0.00,,,0.00,WUHU216HW,2013-04-17 07:40:00,
2013-04-17 00:45:00,38.5,32.3,29.93,North,0,0.0,0.0,78,0.00,,,0.00,WUHU216HW,2013-04-17 07:45:00,
2013-04-17 00:50:00,38.5,32.3,29.93,North,0,0.0,0.0,78,0.00,,,0.00,WUHU216HW,2013-04-17 07:50:00,
2013-04-17 00:55:00,38.5,32.3,29.93,North,0,0.0,0.0,78,0.00,,,0.00,WUHU216HW,2013-04-17 07:55:00,
2013-04-17 01:00:00,38.5,32.6,29.93,North,0,0.0,0.0,79,0.00,,,0.00,WUHU216HW,2013-04-17 08:00:00,
2013-04-17 01:05:00,38.5,32.6,29.93,North,0,0.0,0.0,79,0.00,,,0.00,WUHU216HW,2013-04-17 08:05:00,
2013-04-17 01:10:00,38.5,32.6,29.93,North,0,0.0,0.0,79,0.00,,,0.00,WUHU216HW,2013-04-17 08:10:00,
2013-04-17 01:15:00,38.5,32.6,29.93,North,0,0.0,0.0,79,0.00,,,0.00,WUHU216HW,2013-04-17 08:15:00,
2013-04-17 01:20:00,38.3,32.1,29.93,North,0,0.0,0.0,78,0.00,,,0.00,WUHU216HW,2013-04-17 08:20:00,
2013-04-17 01:25:00,38.2,32.0,29.93,North,0,0.0,0.0,78,0.00,,,0.00,WUHU216HW,2013-04-17 08:25:00,
2013-04-17 01:30:00,38.2,32.0,29.93,North,0,0.0,0.0,78,0.00,,,0.00,WUHU216HW,2013-04-17 08:30:00,
2013-04-17 01:35:00,38.2,32.0,29.93,North,0,0.0,0.0,78,0.00,,,0.00,WUHU216HW,2013-04-17 08:35:00,
2013-04-17 01:40:00,38.0,31.8,29.93,North,0,0.0,0.0,78,0.00,,,0.00,WUHU216HW,2013-04-17 08:40:00,
2013-04-17 01:45:00,37.6,31.4,29.93,North,0,0.0,0.0,78,0.00,,,0.00,WUHU216HW,2013-04-17 08:45:00,
2013-04-17 01:50:00,37.8,31.9,29.93,North,0,0.0,0.0,79,0.00,,,0.00,WUHU216HW,2013-04-17 08:50:00,
2013-04-17 01:55:00,37.8,31.9,29.93,North,0,0.0,0.0,79,0.00,,,0.00,WUHU216HW,2013-04-17 08:55:00,
2013-04-17 02:00:00,37.6,31.7,29.93,North,0,0.0,0.0,79,0.00,,,0.00,WUHU216HW,2013-04-17 09:00:00,
2013-04-17 02:05:00,37.6,31.7,29.93,North,0,0.0,0.0,79,0.00,,,0.00,WUHU216HW,2013-04-17 09:05:00,
2013-04-17 02:10:00,37.4,31.5,29.93,North,0,0.0,0.0,79,0.00,,,0.00,WUHU216HW,2013-04-17 09:10:00,
2013-04-17 02:15:00,37.4,31.9,29.93,North,0,0.0,0.0,80,0.00,,,0.00,WUHU216HW,2013-04-17 09:15:00,
2013-04-17 02:20:00,37.6,32.0,29.93,North,0,0.0,0.0,80,0.00,,,0.00,WUHU216HW,2013-04-17 09:20:00,
2013-04-17 02:25:00,37.8,32.2,29.93,North,0,0.0,0.0,80,0.00,,,0.00,WUHU216HW,2013-04-17 09:25:00,
2013-04-17 02:30:00,37.8,32.2,29.93,North,0,0.0,0.0,80,0.00,,,0.00,WUHU216HW,2013-04-17 09:30:00,
2013-04-17 02:35:00,37.6,32.0,29.93,North,0,0.0,0.0,80,0.00,,,0.00,WUHU216HW,2013-04-17 09:35:00,
2013-04-17 02:40:00,37.4,31.9,29.93,North,0,0.0,0.0,80,0.00,,,0.00,WUHU216HW,2013-04-17 09:40:00,
2013-04-17 02:45:00,37.4,31.9,29.93,North,0,0.0,0.0,80,0.00,,,0.00,WUHU216HW,2013-04-17 09:45:00,
2013-04-17 02:50:00,37.4,31.9,29.93,North,0,0.0,0.0,80,0.00,,,0.00,WUHU216HW,2013-04-17 09:50:00,
2013-04-17 02:55:00,37.4,31.9,29.93,North,0,0.0,0.0,80,0.00,,,0.00,WUHU216HW,2013-04-17 09:55:00,
2013-04-17 03:00:00,37.4,31.9,29.93,North,0,0.0,0.0,80,0.00,,,0.00,WUHU216HW,2013-04-17 10:00:00,
2013-04-17 03:05:00,37.4,31.9,29.93,North,0,0.0,0.0,80,0.00,,,0.00,WUHU216HW,2013-04-17 10:05:00,
2013-04-17 03:10:00,37.4,31.9,29.93,North,0,0.0,0.0,80,0.00,,,0.00,WUHU216HW,2013-04-17 10:10:00,
2013-04-17 03:15:00,37.6,32.0,29.93,North,0,0.0,0.0,80,0.00,,,0.00,WUHU216HW,2013-04-17 10:15:00,
2013-04-17 03:20:00,37.6,32.0,29.93,North,0,0.0,0.0,80,0.00,,,0.00,WUHU216HW,2013-04-17 10:20:00,
2013-04-17 03:25:00,37.8,32.2,29.93,North,0,0.0,0.0,80,0.00,,,0.00,WUHU216HW,2013-04-17 10:25:00,
2013-04-17 03:30:00,37.8,32.5,29.93,North,0,0.0,0.0,81,0.00,,,0.00,WUHU216HW,2013-04-17 10:30:00,
2013-04-17 03:35:00,38.0,32.7,29.93,North,0,0.0,0.0,81,0.00,,,0.00,WUHU216HW,2013-04-17 10:35:00,
2013-04-17 03:40:00,37.8,32.5,29.93,North,0,0.0,0.0,81,0.00,,,0.00,WUHU216HW,2013-04-17 10:40:00,
2013-04-17 03:45:00,37.8,32.5,29.93,North,0,0.0,0.0,81,0.00,,,0.00,WUHU216HW,2013-04-17 10:45:00,
2013-04-17 03:50:00,37.8,32.5,29.93,North,0,0.0,0.0,81,0.00,,,0.00,WUHU216HW,2013-04-17 10:50:00,
2013-04-17 03:55:00,37.3,32.0,29.93,North,0,0.0,0.0,81,0.00,,,0.00,WUHU216HW,2013-04-17 10:55:00,
2013-04-17 04:00:00,37.3,32.0,29.93,North,0,0.0,0.0,81,0.00,,,0.00,WUHU216HW,2013-04-17 11:00:00,
2013-04-17 04:05:00,37.3,32.0,29.93,North,0,0.0,0.0,81,0.00,,,0.00,WUHU216HW,2013-04-17 11:05:00,
2013-04-17 04:10:00,37.4,32.1,29.93,North,0,0.0,0.0,81,0.00,,,0.00,WUHU216HW,2013-04-17 11:10:00,
2013-04-17 04:15:00,37.1,31.8,29.93,North,0,0.0,0.0,81,0.00,,,0.00,WUHU216HW,2013-04-17 11:15:00,
2013-04-17 04:20:00,36.9,31.9,29.93,North,0,0.0,0.0,82,0.00,,,0.00,WUHU216HW,2013-04-17 11:20:00,
2013-04-17 04:25:00,37.1,32.0,29.93,North,0,0.0,0.0,82,0.00,,,0.00,WUHU216HW,2013-04-17 11:25:00,
2013-04-17 04:30:00,37.1,32.0,29.93,North,0,0.0,0.0,82,0.00,,,0.00,WUHU216HW,2013-04-17 11:30:00,
2013-04-17 04:35:00,36.9,31.9,29.93,North,0,0.0,0.0,82,0.00,,,0.00,WUHU216HW,2013-04-17 11:35:00,
2013-04-17 04:40:00,37.1,32.0,29.93,North,0,0.0,0.0,82,0.00,,,0.00,WUHU216HW,2013-04-17 11:40:00,
2013-04-17 04:45:00,36.9,31.9,29.93,North,0,0.0,0.0,82,0.00,,,0.00,WUHU216HW,2013-04-17 11:45:00,
2013-04-17 04:50:00,36.7,31.7,29.93,North,0,0.0,0.0,82,0.00,,,0.00,WUHU216HW,2013-04-17 11:50:00,
2013-04-17 04:55:00,36.7,31.7,29.93,North,0,0.0,0.0,82,0.00,,,0.00,WUHU216HW,2013-04-17 11:55:00,
2013-04-17 05:00:00,36.5,31.5,29.93,North,0,0.0,0.0,82,0.00,,,0.00,WUHU216HW,2013-04-17 12:00:00,
2013-04-17 05:05:00,36.5,31.5,29.93,North,0,0.0,0.0,82,0.00,,,0.00,WUHU216HW,2013-04-17 12:05:00,
2013-04-17 05:10:00,36.4,31.3,29.94,North,0,0.0,0.0,82,0.00,,,0.00,WUHU216HW,2013-04-17 12:10:00,
2013-04-17 05:15:00,36.2,31.1,29.94,North,0,0.0,0.0,82,0.00,,,0.00,WUHU216HW,2013-04-17 12:15:00,
2013-04-17 05:20:00,36.4,31.3,29.94,North,0,0.0,0.0,82,0.00,,,0.00,WUHU216HW,2013-04-17 12:20:00,
2013-04-17 05:25:00,36.4,31.3,29.94,North,0,0.0,0.0,82,0.00,,,0.00,WUHU216HW,2013-04-17 12:25:00,
2013-04-17 05:30:00,36.4,31.3,29.94,North,0,0.0,0.0,82,0.00,,,0.00,WUHU216HW,2013-04-17 12:30:00,
2013-04-17 05:35:00,36.2,31.1,29.94,North,0,0.0,0.0,82,0.00,,,0.00,WUHU216HW,2013-04-17 12:35:00,
2013-04-17 05:40:00,36.2,31.5,29.94,North,0,0.0,0.0,83,0.00,,,0.00,WUHU216HW,2013-04-17 12:40:00,
2013-04-17 05:45:00,36.4,31.7,29.94,North,0,0.0,0.0,83,0.00,,,0.00,WUHU216HW,2013-04-17 12:45:00,
2013-04-17 05:50:00,36.4,31.7,29.94,North,0,0.0,0.0,83,0.00,,,0.00,WUHU216HW,2013-04-17 12:50:00,
2013-04-17 05:55:00,36.4,31.7,29.94,North,0,0.0,0.0,83,0.00,,,0.00,WUHU216HW,2013-04-17 12:55:00,
2013-04-17 06:00:00,36.5,31.9,29.95,North,0,0.0,0.0,83,0.00,,,0.00,WUHU216HW,2013-04-17 13:00:00,
2013-04-17 06:05:00,36.7,32.1,29.95,North,0,0.0,0.0,83,0.00,,,0.00,WUHU216HW,2013-04-17 13:05:00,
2013-04-17 06:10:00,36.7,32.1,29.95,North,0,0.0,0.0,83,0.00,,,0.00,WUHU216HW,2013-04-17 13:10:00,
2013-04-17 06:15:00,36.9,32.2,29.95,North,0,0.0,0.0,83,0.00,,,0.00,WUHU216HW,2013-04-17 13:15:00,
2013-04-17 06:20:00,37.1,32.4,29.95,North,0,0.0,0.0,83,0.00,,,0.00,WUHU216HW,2013-04-17 13:20:00,
2013-04-17 06:25:00,37.1,32.0,29.95,North,0,0.0,0.0,82,0.00,,,0.00,WUHU216HW,2013-04-17 13:25:00,
2013-04-17 06:30:00,37.1,32.4,29.95,North,0,0.0,0.0,83,0.00,,,0.00,WUHU216HW,2013-04-17 13:30:00,
2013-04-17 06:35:00,37.3,32.6,29.95,North,0,0.0,0.0,83,0.00,,,0.00,WUHU216HW,2013-04-17 13:35:00,
2013-04-17 06:40:00,37.4,32.8,29.95,North,0,0.0,0.0,83,0.00,,,0.00,WUHU216HW,2013-04-17 13:40:00,
2013-04-17 06:45:00,37.4,32.8,29.96,North,0,0.0,0.0,83,0.00,,,0.00,WUHU216HW,2013-04-17 13:45:00,
2013-04-17 06:50:00,37.6,33.0,29.95,North,0,0.0,0.0,83,0.00,,,0.00,WUHU216HW,2013-04-17 13:50:00,
2013-04-17 06:55:00,37.8,33.1,29.95,North,0,0.0,0.0,83,0.00,,,0.00,WUHU216HW,2013-04-17 13:55:00,
2013-04-17 07:00:00,38.0,33.3,29.95,North,0,0.0,0.0,83,0.00,,,0.00,WUHU216HW,2013-04-17 14:00:00,
2013-04-17 07:05:00,38.0,33.3,29.95,North,0,0.0,0.0,83,0.00,,,0.00,WUHU216HW,2013-04-17 14:05:00,
2013-04-17 07:10:00,38.2,33.5,29.95,North,0,0.0,0.0,83,0.00,,,0.00,WUHU216HW,2013-04-17 14:10:00,
2013-04-17 07:15:00,38.2,33.8,29.96,North,0,0.0,0.0,84,0.00,,,0.00,WUHU216HW,2013-04-17 14:15:00,
2013-04-17 07:20:00,38.5,34.1,29.95,North,0,0.0,0.0,84,0.00,,,0.00,WUHU216HW,2013-04-17 14:20:00,
2013-04-17 07:25:00,38.7,34.3,29.96,North,0,0.0,0.0,84,0.00,,,0.00,WUHU216HW,2013-04-17 14:25:00,
2013-04-17 07:30:00,38.9,34.5,29.96,North,0,0.0,0.0,84,0.00,,,0.00,WUHU216HW,2013-04-17 14:30:00,
2013-04-17 07:35:00,39.2,34.8,29.96,North,0,0.0,0.0,84,0.00,,,0.00,WUHU216HW,2013-04-17 14:35:00,
2013-04-17 07:40:00,39.2,34.6,29.95,North,0,0.0,0.0,83,0.00,,,0.00,WUHU216HW,2013-04-17 14:40:00,
2013-04-17 07:45:00,39.4,34.7,29.96,North,0,0.0,0.0,83,0.00,,,0.00,WUHU216HW,2013-04-17 14:45:00,
2013-04-17 07:50:00,39.6,34.8,29.96,North,0,0.0,0.0,83,0.00,,,0.00,WUHU216HW,2013-04-17 14:50:00,
2013-04-17 07:55:00,39.8,35.0,29.96,North,0,0.0,0.0,83,0.00,,,0.00,WUHU216HW,2013-04-17 14:55:00,
2013-04-17 08:00:00,40.0,35.2,29.96,North,0,0.0,0.0,83,0.00,,,0.00,WUHU216HW,2013-04-17 15:00:00,
2013-04-17 08:05:00,40.1,35.4,29.97,North,0,0.0,0.0,83,0.00,,,0.00,WUHU216HW,2013-04-17 15:05:00,
2013-04-17 08:10:00,40.1,35.6,29.96,North,0,0.0,0.0,84,0.00,,,0.00,WUHU216HW,2013-04-17 15:10:00,
2013-04-17 08:15:00,40.5,36.0,29.96,North,0,0.0,0.0,84,0.00,,,0.00,WUHU216HW,2013-04-17 15:15:00,
2013-04-17 08:20:00,40.7,36.2,29.96,North,0,0.0,0.0,84,0.00,,,0.00,WUHU216HW,2013-04-17 15:20:00,
2013-04-17 08:25:00,40.9,36.4,29.96,North,0,0.0,0.0,84,0.00,,,0.00,WUHU216HW,2013-04-17 15:25:00,
2013-04-17 08:30:00,41.2,36.7,29.97,North,0,0.0,0.0,84,0.00,,,0.00,WUHU216HW,2013-04-17 15:30:00,
2013-04-17 08:35:00,41.6,37.1,29.97,North,0,0.0,0.0,84,0.00,,,0.00,WUHU216HW,2013-04-17 15:35:00,
2013-04-17 08:40:00,42.1,37.9,29.97,North,0,0.0,0.0,85,0.00,,,0.00,WUHU216HW,2013-04-17 15:40:00,
2013-04-17 08:45:00,42.3,38.1,29.96,North,0,0.0,0.0,85,0.00,,,0.00,WUHU216HW,2013-04-17 15:45:00,
2013-04-17 08:50:00,42.5,38.3,29.96,North,0,0.0,0.0,85,0.00,,,0.00,WUHU216HW,2013-04-17 15:50:00,
2013-04-17 08:55:00,42.8,38.6,29.96,North,0,0.0,0.0,85,0.00,,,0.00,WUHU216HW,2013-04-17 15:55:00,
2013-04-17 09:00:00,43.0,38.8,29.96,North,0,0.0,0.0,85,0.00,,,0.00,WUHU216HW,2013-04-17 16:00:00,
2013-04-17 09:05:00,43.4,38.5,29.96,North,0,0.0,0.0,83,0.00,,,0.00,WUHU216HW,2013-04-17 16:05:00,
2013-04-17 09:10:00,43.7,39.3,29.97,North,0,0.0,0.0,84,0.00,,,0.00,WUHU216HW,2013-04-17 16:10:00,
2013-04-17 09:15:00,43.9,39.1,29.97,North,0,0.0,0.0,83,0.00,,,0.00,WUHU216HW,2013-04-17 16:15:00,
2013-04-17 09:20:00,44.3,39.4,29.96,North,0,0.0,0.0,83,0.00,,,0.00,WUHU216HW,2013-04-17 16:20:00,
2013-04-17 09:25:00,45.0,40.1,29.96,North,0,0.0,0.0,83,0.00,,,0.00,WUHU216HW,2013-04-17 16:25:00,
2013-04-17 09:30:00,45.4,40.5,29.96,North,0,0.0,0.0,83,0.00,,,0.00,WUHU216HW,2013-04-17 16:30:00,
2013-04-17 09:35:00,45.7,40.6,29.96,North,0,0.0,0.0,82,0.00,,,0.00,WUHU216HW,2013-04-17 16:35:00,
2013-04-17 09:40:00,46.3,41.1,29.97,North,0,0.0,0.0,82,0.00,,,0.00,WUHU216HW,2013-04-17 16:40:00,
2013-04-17 09:45:00,46.4,41.3,29.96,North,0,0.0,0.0,82,0.00,,,0.00,WUHU216HW,2013-04-17 16:45:00,
2013-04-17 09:50:00,46.6,41.5,29.97,North,0,0.0,0.0,82,0.00,,,0.00,WUHU216HW,2013-04-17 16:50:00,
2013-04-17 09:55:00,46.8,41.6,29.97,North,0,0.0,0.0,82,0.00,,,0.00,WUHU216HW,2013-04-17 16:55:00,
2013-04-17 10:00:00,47.0,41.8,29.97,North,0,0.0,0.0,82,0.00,,,0.00,WUHU216HW,2013-04-17 17:00:00,
2013-04-17 10:05:00,47.2,41.7,29.96,North,0,0.0,0.0,81,0.00,,,0.00,WUHU216HW,2013-04-17 17:05:00,
2013-04-17 10:10:00,47.7,42.1,29.96,North,0,0.0,0.0,81,0.00,,,0.00,WUHU216HW,2013-04-17 17:10:00,
2013-04-17 10:15:00,47.9,42.3,29.96,North,0,0.0,0.0,81,0.00,,,0.00,WUHU216HW,2013-04-17 17:15:00,
2013-04-17 10:20:00,48.2,42.7,29.97,North,0,0.0,0.0,81,0.00,,,0.00,WUHU216HW,2013-04-17 17:20:00,
2013-04-17 10:25:00,48.6,42.7,29.96,North,0,0.0,0.0,80,0.00,,,0.00,WUHU216HW,2013-04-17 17:25:00,
2013-04-17 10:30:00,49.0,43.0,29.96,North,0,0.0,0.0,80,0.00,,,0.00,WUHU216HW,2013-04-17 17:30:00,
2013-04-17 10:35:00,49.1,42.8,29.96,North,0,0.0,0.0,79,0.00,,,0.00,WUHU216HW,2013-04-17 17:35:00,
2013-04-17 10:40:00,49.7,43.4,29.96,North,0,0.0,0.0,79,0.00,,,0.00,WUHU216HW,2013-04-17 17:40:00,
2013-04-17 10:45:00,50.0,43.7,29.96,North,0,0.0,0.0,79,0.00,,,0.00,WUHU216HW,2013-04-17 17:45:00,
2013-04-17 10:50:00,50.4,43.5,29.96,North,0,0.0,0.0,77,0.00,,,0.00,WUHU216HW,2013-04-17 17:50:00,
2013-04-17 10:55:00,50.8,43.8,29.96,North,0,0.0,0.0,77,0.00,,,0.00,WUHU216HW,2013-04-17 17:55:00,
2013-04-17 11:00:00,50.8,43.8,29.96,North,0,0.0,0.0,77,0.00,,,0.00,WUHU216HW,2013-04-17 18:00:00,
2013-04-17 11:05:00,51.1,43.5,29.96,North,0,0.0,0.0,75,0.00,,,0.00,WUHU216HW,2013-04-17 18:05:00,
2013-04-17 11:10:00,51.5,42.9,29.96,North,0,0.0,0.0,72,0.00,,,0.00,WUHU216HW,2013-04-17 18:10:00,
2013-04-17 11:15:00,51.7,43.0,29.96,North,0,0.0,0.0,72,0.00,,,0.00,WUHU216HW,2013-04-17 18:15:00,
2013-04-17 11:20:00,51.8,43.2,29.96,North,0,0.0,0.0,72,0.00,,,0.00,WUHU216HW,2013-04-17 18:20:00,
2013-04-17 11:25:00,52.0,43.3,29.97,North,0,0.0,0.0,72,0.00,,,0.00,WUHU216HW,2013-04-17 18:25:00,
2013-04-17 11:30:00,52.2,43.1,29.96,North,0,0.0,0.0,71,0.00,,,0.00,WUHU216HW,2013-04-17 18:30:00,
2013-04-17 11:35:00,52.6,43.8,29.96,North,0,0.0,0.0,72,0.00,,,0.00,WUHU216HW,2013-04-17 18:35:00,
2013-04-17 11:40:00,52.9,43.5,29.96,North,0,0.0,0.0,70,0.00,,,0.00,WUHU216HW,2013-04-17 18:40:00,
2013-04-17 11:45:00,53.3,44.1,29.96,North,0,0.0,0.0,71,0.00,,,0.00,WUHU216HW,2013-04-17 18:45:00,
2013-04-17 11:50:00,53.8,44.7,29.96,North,0,0.0,0.0,71,0.00,,,0.00,WUHU216HW,2013-04-17 18:50:00,
2013-04-17 11:55:00,54.2,42.7,29.95,North,0,0.0,0.0,65,0.00,,,0.00,WUHU216HW,2013-04-17 18:55:00,
2013-04-17 12:00:00,54.5,42.6,29.95,North,0,0.0,0.0,64,0.00,,,0.00,WUHU216HW,2013-04-17 19:00:00,
2013-04-17 12:05:00,55.1,43.5,29.95,North,0,0.0,0.0,65,0.00,,,0.00,WUHU216HW,2013-04-17 19:05:00,
2013-04-17 12:10:00,55.3,42.9,29.96,North,0,0.0,0.0,63,0.00,,,0.00,WUHU216HW,2013-04-17 19:10:00,
2013-04-17 12:15:00,55.6,41.5,29.95,North,0,0.0,0.0,59,0.00,,,0.00,WUHU216HW,2013-04-17 19:15:00,
2013-04-17 12:20:00,55.8,39.8,29.95,North,0,0.0,0.0,55,0.00,,,0.00,WUHU216HW,2013-04-17 19:20:00,
2013-04-17 12:25:00,56.3,41.8,29.95,North,0,0.0,0.0,58,0.00,,,0.00,WUHU216HW,2013-04-17 19:25:00,
2013-04-17 12:30:00,56.7,40.2,29.96,North,0,0.0,0.0,54,0.00,,,0.00,WUHU216HW,2013-04-17 19:30:00,
2013-04-17 12:35:00,56.9,40.4,29.95,North,0,0.0,0.0,54,0.00,,,0.00,WUHU216HW,2013-04-17 19:35:00,
2013-04-17 12:40:00,57.1,40.6,29.95,North,0,0.0,0.0,54,0.00,,,0.00,WUHU216HW,2013-04-17 19:40:00,
2013-04-17 12:45:00,57.1,40.2,29.95,North,0,0.0,0.0,53,0.00,,,0.00,WUHU216HW,2013-04-17 19:45:00,
2013-04-17 12:50:00,57.2,37.7,29.95,North,0,0.0,0.0,48,0.00,,,0.00,WUHU216HW,2013-04-17 19:50:00,
2013-04-17 12:55:00,57.6,38.1,29.95,North,0,0.0,0.0,48,0.00,,,0.00,WUHU216HW,2013-04-17 19:55:00,
2013-04-17 13:00:00,57.4,39.1,29.95,North,0,0.0,0.0,50,0.00,,,0.00,WUHU216HW,2013-04-17 20:00:00,
2013-04-17 13:05:00,57.4,40.0,29.95,North,0,0.0,0.0,52,0.00,,,0.00,WUHU216HW,2013-04-17 20:05:00,
2013-04-17 13:10:00,57.6,39.3,29.95,North,0,0.0,0.0,50,0.00,,,0.00,WUHU216HW,2013-04-17 20:10:00,
2013-04-17 13:15:00,57.6,40.6,29.95,North,0,0.0,0.0,53,0.00,,,0.00,WUHU216HW,2013-04-17 20:15:00,
2013-04-17 13:20:00,58.0,41.0,29.95,North,0,0.0,0.0,53,0.00,,,0.00,WUHU216HW,2013-04-17 20:20:00,
2013-04-17 13:25:00,58.5,41.4,29.95,North,0,0.0,0.0,53,0.00,,,0.00,WUHU216HW,2013-04-17 20:25:00,
2013-04-17 13:30:00,58.9,41.3,29.95,North,0,0.0,0.0,52,0.00,,,0.00,WUHU216HW,2013-04-17 20:30:00,
2013-04-17 13:35:00,58.9,40.8,29.94,North,0,0.0,0.0,51,0.00,,,0.00,WUHU216HW,2013-04-17 20:35:00,
2013-04-17 13:40:00,59.0,39.3,29.94,North,0,0.0,0.0,48,0.00,,,0.00,WUHU216HW,2013-04-17 20:40:00,
2013-04-17 13:45:00,59.0,41.4,29.94,North,0,0.0,0.0,52,0.00,,,0.00,WUHU216HW,2013-04-17 20:45:00,
2013-04-17 13:50:00,58.9,41.8,29.94,North,0,0.0,0.0,53,0.00,,,0.00,WUHU216HW,2013-04-17 20:50:00,
2013-04-17 13:55:00,58.9,42.2,29.94,North,0,0.0,0.0,54,0.00,,,0.00,WUHU216HW,2013-04-17 20:55:00,
2013-04-17 14:00:00,58.7,41.6,29.94,North,0,0.0,0.0,53,0.00,,,0.00,WUHU216HW,2013-04-17 21:00:00,
2013-04-17 14:05:00,58.7,40.7,29.94,North,0,0.0,0.0,51,0.00,,,0.00,WUHU216HW,2013-04-17 21:05:00,
2013-04-17 14:10:00,58.7,41.6,29.94,North,0,0.0,0.0,53,0.00,,,0.00,WUHU216HW,2013-04-17 21:10:00,
2013-04-17 14:15:00,58.7,42.5,29.94,North,0,0.0,0.0,55,0.00,,,0.00,WUHU216HW,2013-04-17 21:15:00,
2013-04-17 14:20:00,58.1,41.1,29.94,North,0,0.0,0.0,53,0.00,,,0.00,WUHU216HW,2013-04-17 21:20:00,
2013-04-17 14:25:00,58.0,40.0,29.94,North,0,0.0,0.0,51,0.00,,,0.00,WUHU216HW,2013-04-17 21:25:00,
2013-04-17 14:30:00,58.0,41.0,29.94,North,0,0.0,0.0,53,0.00,,,0.00,WUHU216HW,2013-04-17 21:30:00,
2013-04-17 14:35:00,57.8,40.8,29.94,North,0,0.0,0.0,53,0.00,,,0.00,WUHU216HW,2013-04-17 21:35:00,
2013-04-17 14:40:00,57.8,40.8,29.94,North,0,0.0,0.0,53,0.00,,,0.00,WUHU216HW,2013-04-17 21:40:00,
2013-04-17 14:45:00,57.8,41.7,29.94,North,0,0.0,0.0,55,0.00,,,0.00,WUHU216HW,2013-04-17 21:45:00,
2013-04-17 14:50:00,57.6,41.0,29.94,North,0,0.0,0.0,54,0.00,,,0.00,WUHU216HW,2013-04-17 21:50:00,
2013-04-17 14:55:00,57.6,40.6,29.94,North,0,0.0,0.0,53,0.00,,,0.00,WUHU216HW,2013-04-17 21:55:00,
2013-04-17 15:00:00,57.6,40.6,29.94,North,0,0.0,0.0,53,0.00,,,0.00,WUHU216HW,2013-04-17 22:00:00,
2013-04-17 15:05:00,57.6,41.0,29.94,North,0,0.0,0.0,54,0.00,,,0.00,WUHU216HW,2013-04-17 22:05:00,
2013-04-17 15:10:00,57.6,40.6,29.94,North,0,0.0,0.0,53,0.00,,,0.00,WUHU216HW,2013-04-17 22:10:00,
2013-04-17 15:15:00,57.2,40.3,29.94,North,0,0.0,0.0,53,0.00,,,0.00,WUHU216HW,2013-04-17 22:15:00,
2013-04-17 15:20:00,57.2,39.8,29.93,North,0,0.0,0.0,52,0.00,,,0.00,WUHU216HW,2013-04-17 22:20:00,
2013-04-17 15:25:00,57.2,40.8,29.93,North,0,0.0,0.0,54,0.00,,,0.00,WUHU216HW,2013-04-17 22:25:00,
2013-04-17 15:30:00,57.2,40.8,29.93,North,0,0.0,0.0,54,0.00,,,0.00,WUHU216HW,2013-04-17 22:30:00,
2013-04-17 15:35:00,56.9,40.4,29.93,North,0,0.0,0.0,54,0.00,,,0.00,WUHU216HW,2013-04-17 22:35:00,
2013-04-17 15:40:00,56.9,40.4,29.93,North,0,0.0,0.0,54,0.00,,,0.00,WUHU216HW,2013-04-17 22:40:00,
2013-04-17 15:45:00,56.7,40.2,29.93,North,0,0.0,0.0,54,0.00,,,0.00,WUHU216HW,2013-04-17 22:45:00,
2013-04-17 15:50:00,56.5,40.1,29.93,North,0,0.0,0.0,54,0.00,,,0.00,WUHU216HW,2013-04-17 22:50:00,
2013-04-17 15:55:00,56.5,40.1,29.93,North,0,0.0,0.0,54,0.00,,,0.00,WUHU216HW,2013-04-17 22:55:00,
2013-04-17 16:00:00,56.3,40.3,29.93,North,0,0.0,0.0,55,0.00,,,0.00,WUHU216HW,2013-04-17 23:00:00,
2013-04-17 16:05:00,56.5,41.0,29.93,North,0,0.0,0.0,56,0.00,,,0.00,WUHU216HW,2013-04-17 23:05:00,
2013-04-17 16:10:00,56.3,40.8,29.93,North,0,0.0,0.0,56,0.00,,,0.00,WUHU216HW,2013-04-17 23:10:00,
2013-04-17 16:15:00,56.5,40.5,29.93,North,0,0.0,0.0,55,0.00,,,0.00,WUHU216HW,2013-04-17 23:15:00,
2013-04-17 16:20:00,56.5,41.0,29.93,North,0,0.0,0.0,56,0.00,,,0.00,WUHU216HW,2013-04-17 23:20:00,
2013-04-17 16:25:00,56.5,41.0,29.93,North,0,0.0,0.0,56,0.00,,,0.00,WUHU216HW,2013-04-17 23:25:00,
2013-04-17 16:30:00,56.2,41.0,29.93,North,0,0.0,0.0,57,0.00,,,0.00,WUHU216HW,2013-04-17 23:30:00,
2013-04-17 16:35:00,56.0,40.9,29.93,North,0,0.0,0.0,57,0.00,,,0.00,WUHU216HW,2013-04-17 23:35:00,
2013-04-17 16:40:00,55.8,40.7,29.93,North,0,0.0,0.0,57,0.00,,,0.00,WUHU216HW,2013-04-17 23:40:00,
2013-04-17 16:45:00,55.8,40.2,29.93,North,0,0.0,0.0,56,0.00,,,0.00,WUHU216HW,2013-04-17 23:45:00,
2013-04-17 16:50:00,56.2,40.6,29.93,North,0,0.0,0.0,56,0.00,,,0.00,WUHU216HW,2013-04-17 23:50:00,
2013-04-17 16:55:00,56.2,41.0,29.93,North,0,0.0,0.0,57,0.00,,,0.00,WUHU216HW,2013-04-17 23:55:00,
2013-04-17 17:00:00,56.3,41.8,29.93,North,0,0.0,0.0,58,0.00,,,0.00,WUHU216HW,2013-04-18 00:00:00,
2013-04-17 17:05:00,56.2,41.6,29.93,North,0,0.0,0.0,58,0.00,,,0.00,WUHU216HW,2013-04-18 00:05:00,
2013-04-17 17:10:00,56.0,41.4,29.93,North,0,0.0,0.0,58,0.00,,,0.00,WUHU216HW,2013-04-18 00:10:00,
2013-04-17 17:15:00,55.8,41.7,29.93,North,0,0.0,0.0,59,0.00,,,0.00,WUHU216HW,2013-04-18 00:15:00,
2013-04-17 17:20:00,55.8,42.1,29.93,North,0,0.0,0.0,60,0.00,,,0.00,WUHU216HW,2013-04-18 00:20:00,
2013-04-17 17:25:00,55.8,42.1,29.93,North,0,0.0,0.0,60,0.00,,,0.00,WUHU216HW,2013-04-18 00:25:00,
2013-04-17 17:30:00,55.8,43.4,29.93,North,0,0.0,0.0,63,0.00,,,0.00,WUHU216HW,2013-04-18 00:30:00,
2013-04-17 17:35:00,55.4,42.2,29.93,North,0,0.0,0.0,61,0.00,,,0.00,WUHU216HW,2013-04-18 00:35:00,
2013-04-17 17:40:00,55.4,42.2,29.93,North,0,0.0,0.0,61,0.00,,,0.00,WUHU216HW,2013-04-18 00:40:00,
2013-04-17 17:45:00,55.1,42.3,29.93,North,0,0.0,0.0,62,0.00,,,0.00,WUHU216HW,2013-04-18 00:45:00,
2013-04-17 17:50:00,55.1,42.3,29.93,North,0,0.0,0.0,62,0.00,,,0.00,WUHU216HW,2013-04-18 00:50:00,
2013-04-17 17:55:00,54.7,42.0,29.93,North,0,0.0,0.0,62,0.00,,,0.00,WUHU216HW,2013-04-18 00:55:00,
2013-04-17 18:00:00,54.7,42.3,29.93,North,0,0.0,0.0,63,0.00,,,0.00,WUHU216HW,2013-04-18 01:00:00,
2013-04-17 18:05:00,54.4,42.0,29.93,North,0,0.0,0.0,63,0.00,,,0.00,WUHU216HW,2013-04-18 01:05:00,
2013-04-17 18:10:00,54.4,42.4,29.93,North,0,0.0,0.0,64,0.00,,,0.00,WUHU216HW,2013-04-18 01:10:00,
2013-04-17 18:15:00,54.4,42.9,29.93,North,0,0.0,0.0,65,0.00,,,0.00,WUHU216HW,2013-04-18 01:15:00,
2013-04-17 18:20:00,54.0,42.5,29.93,North,0,0.0,0.0,65,0.00,,,0.00,WUHU216HW,2013-04-18 01:20:00,
2013-04-17 18:25:00,53.6,42.1,29.93,North,0,0.0,0.0,65,0.00,,,0.00,WUHU216HW,2013-04-18 01:25:00,
2013-04-17 18:30:00,53.5,41.9,29.93,North,0,0.0,0.0,65,0.00,,,0.00,WUHU216HW,2013-04-18 01:30:00,
2013-04-17 18:35:00,53.3,42.2,29.93,North,0,0.0,0.0,66,0.00,,,0.00,WUHU216HW,2013-04-18 01:35:00,
2013-04-17 18:40:00,53.5,42.4,29.93,North,0,0.0,0.0,66,0.00,,,0.00,WUHU216HW,2013-04-18 01:40:00,
2013-04-17 18:45:00,53.6,42.5,29.93,North,0,0.0,0.0,66,0.00,,,0.00,WUHU216HW,2013-04-18 01:45:00,
2013-04-17 18:50:00,53.5,42.4,29.93,North,0,0.0,0.0,66,0.00,,,0.00,WUHU216HW,2013-04-18 01:50:00,
2013-04-17 18:55:00,53.3,42.2,29.93,North,0,0.0,0.0,66,0.00,,,0.00,WUHU216HW,2013-04-18 01:55:00,
2013-04-17 19:00:00,52.9,41.4,29.93,North,0,0.0,0.0,65,0.00,,,0.00,WUHU216HW,2013-04-18 02:00:00,
2013-04-17 19:05:00,52.7,41.7,29.93,North,0,0.0,0.0,66,0.00,,,0.00,WUHU216HW,2013-04-18 02:05:00,
2013-04-17 19:10:00,52.6,41.5,29.93,North,0,0.0,0.0,66,0.00,,,0.00,WUHU216HW,2013-04-18 02:10:00,
2013-04-17 19:15:00,52.2,41.6,29.93,North,0,0.0,0.0,67,0.00,,,0.00,WUHU216HW,2013-04-18 02:15:00,
2013-04-17 19:20:00,52.0,41.4,29.93,North,0,0.0,0.0,67,0.00,,,0.00,WUHU216HW,2013-04-18 02:20:00,
2013-04-17 19:25:00,51.8,41.2,29.93,North,0,0.0,0.0,67,0.00,,,0.00,WUHU216HW,2013-04-18 02:25:00,
2013-04-17 19:30:00,51.8,41.7,29.93,North,0,0.0,0.0,68,0.00,,,0.00,WUHU216HW,2013-04-18 02:30:00,
2013-04-17 19:35:00,51.7,41.5,29.93,North,0,0.0,0.0,68,0.00,,,0.00,WUHU216HW,2013-04-18 02:35:00,
2013-04-17 19:40:00,51.5,41.3,29.93,North,0,0.0,0.0,68,0.00,,,0.00,WUHU216HW,2013-04-18 02:40:00,
2013-04-17 19:45:00,51.3,41.1,29.93,North,0,0.0,0.0,68,0.00,,,0.00,WUHU216HW,2013-04-18 02:45:00,
2013-04-17 19:50:00,51.1,41.0,29.93,North,0,0.0,0.0,68,0.00,,,0.00,WUHU216HW,2013-04-18 02:50:00,
2013-04-17 19:55:00,50.9,41.2,29.93,North,0,0.0,0.0,69,0.00,,,0.00,WUHU216HW,2013-04-18 02:55:00,
2013-04-17 20:00:00,50.8,41.1,29.93,North,0,0.0,0.0,69,0.00,,,0.00,WUHU216HW,2013-04-18 03:00:00,
2013-04-17 20:05:00,50.8,41.4,29.93,North,0,0.0,0.0,70,0.00,,,0.00,WUHU216HW,2013-04-18 03:05:00,
2013-04-17 20:10:00,50.8,41.4,29.93,North,0,0.0,0.0,70,0.00,,,0.00,WUHU216HW,2013-04-18 03:10:00,
2013-04-17 20:15:00,50.6,41.2,29.94,North,0,0.0,0.0,70,0.00,,,0.00,WUHU216HW,2013-04-18 03:15:00,
2013-04-17 20:20:00,50.4,41.0,29.94,North,0,0.0,0.0,70,0.00,,,0.00,WUHU216HW,2013-04-18 03:20:00,
2013-04-17 20:25:00,50.2,40.9,29.94,North,0,0.0,0.0,70,0.00,,,0.00,WUHU216HW,2013-04-18 03:25:00,
2013-04-17 20:30:00,50.0,41.1,29.94,North,0,0.0,0.0,71,0.00,,,0.00,WUHU216HW,2013-04-18 03:30:00,
2013-04-17 20:35:00,49.9,40.9,29.94,North,0,0.0,0.0,71,0.00,,,0.00,WUHU216HW,2013-04-18 03:35:00,
2013-04-17 20:40:00,49.7,40.7,29.94,North,0,0.0,0.0,71,0.00,,,0.00,WUHU216HW,2013-04-18 03:40:00,
2013-04-17 20:45:00,49.7,41.1,29.94,North,0,0.0,0.0,72,0.00,,,0.00,WUHU216HW,2013-04-18 03:45:00,
2013-04-17 20:50:00,49.3,40.7,29.94,North,0,0.0,0.0,72,0.00,,,0.00,WUHU216HW,2013-04-18 03:50:00,
2013-04-17 20:55:00,49.3,40.7,29.95,North,0,0.0,0.0,72,0.00,,,0.00,WUHU216HW,2013-04-18 03:55:00,
2013-04-17 21:00:00,49.0,40.6,29.95,North,0,0.0,0.0,73,0.00,,,0.00,WUHU216HW,2013-04-18 04:00:00,
2013-04-17 21:01:00,49.0,40.6,29.95,North,0,0.0,0.0,73,0.00,,,0.00,WUHU216HW,2013-04-18 04:01:00,
2013-04-17 21:06:00,49.0,40.6,29.95,North,0,0.0,0.0,73,0.00,,,0.00,WUHU216HW,2013-04-18 04:06:00,
2013-04-17 21:11:00,48.8,40.4,29.95,North,0,0.0,0.0,73,0.00,,,0.00,WUHU216HW,2013-04-18 04:11:00,
2013-04-17 21:16:00,48.8,40.4,29.95,North,0,0.0,0.0,73,0.00,,,0.00,WUHU216HW,2013-04-18 04:16:00,
2013-04-17 21:21:00,48.8,40.4,29.95,North,0,0.0,0.0,73,0.00,,,0.00,WUHU216HW,2013-04-18 04:21:00,
2013-04-17 21:26:00,48.6,40.2,29.95,North,0,0.0,0.0,73,0.00,,,0.00,WUHU216HW,2013-04-18 04:26:00,
2013-04-17 21:31:00,48.6,40.2,29.96,North,0,0.0,0.0,73,0.00,,,0.00,WUHU216HW,2013-04-18 04:31:00,
2013-04-17 21:36:00,48.4,40.4,29.96,North,0,0.0,0.0,74,0.00,,,0.00,WUHU216HW,2013-04-18 04:36:00,
2013-04-17 21:41:00,48.2,40.2,29.96,North,0,0.0,0.0,74,0.00,,,0.00,WUHU216HW,2013-04-18 04:41:00,
2013-04-17 21:46:00,48.1,40.1,29.96,North,0,0.0,0.0,74,0.00,,,0.00,WUHU216HW,2013-04-18 04:46:00,
2013-04-17 21:51:00,47.9,40.0,29.96,North,0,0.0,0.0,74,0.00,,,0.00,WUHU216HW,2013-04-18 04:51:00,
2013-04-17 21:57:00,47.9,40.2,29.96,North,0,0.0,0.0,75,0.00,,,0.00,WUHU216HW,2013-04-18 04:57:00,
2013-04-17 22:02:00,47.7,40.2,29.96,North,0,0.0,0.0,75,0.00,,,0.00,WUHU216HW,2013-04-18 05:02:00,
2013-04-17 22:07:00,47.5,40.0,29.96,North,0,0.0,0.0,75,0.00,,,0.00,WUHU216HW,2013-04-18 05:07:00,
2013-04-17 22:12:00,47.5,40.0,29.96,North,0,0.0,0.0,75,0.00,,,0.00,WUHU216HW,2013-04-18 05:12:00,
2013-04-17 22:17:00,47.5,40.0,29.96,North,0,0.0,0.0,75,0.00,,,0.00,WUHU216HW,2013-04-18 05:17:00,
2013-04-17 22:22:00,47.2,40.3,29.96,North,0,0.0,0.0,77,0.00,,,0.00,WUHU216HW,2013-04-18 05:22:00,
2013-04-17 22:27:00,47.0,40.1,29.96,North,0,0.0,0.0,77,0.00,,,0.00,WUHU216HW,2013-04-18 05:27:00,
2013-04-17 22:32:00,47.0,40.5,29.96,North,0,0.0,0.0,78,0.00,,,0.00,WUHU216HW,2013-04-18 05:32:00,
2013-04-17 22:37:00,47.0,40.5,29.96,North,0,0.0,0.0,78,0.00,,,0.00,WUHU216HW,2013-04-18 05:37:00,
2013-04-17 22:42:00,47.0,40.5,29.96,North,0,0.0,0.0,78,0.00,,,0.00,WUHU216HW,2013-04-18 05:42:00,
2013-04-17 22:46:00,47.0,40.5,29.96,North,0,0.0,0.0,78,0.00,,,0.00,WUHU216HW,2013-04-18 05:46:00,
2013-04-17 22:51:00,47.0,40.1,29.96,North,0,0.0,0.0,77,0.00,,,0.00,WUHU216HW,2013-04-18 05:51:00,
2013-04-17 22:56:00,46.8,40.0,29.96,North,0,0.0,0.0,77,0.00,,,0.00,WUHU216HW,2013-04-18 05:56:00,
2013-04-17 23:01:00,46.8,40.0,29.96,North,0,0.0,0.0,77,0.00,,,0.00,WUHU216HW,2013-04-18 06:01:00,
2013-04-17 23:06:00,46.6,39.8,29.96,North,0,0.0,0.0,77,0.00,,,0.00,WUHU216HW,2013-04-18 06:06:00,
2013-04-17 23:11:00,46.6,39.8,29.96,North,0,0.0,0.0,77,0.00,,,0.00,WUHU216HW,2013-04-18 06:11:00,
2013-04-17 23:16:00,46.6,39.8,29.96,North,0,0.0,0.0,77,0.00,,,0.00,WUHU216HW,2013-04-18 06:16:00,
2013-04-17 23:21:00,46.6,40.1,29.96,North,0,0.0,0.0,78,0.00,,,0.00,WUHU216HW,2013-04-18 06:21:00,
2013-04-17 23:27:00,46.6,40.1,29.96,North,0,0.0,0.0,78,0.00,,,0.00,WUHU216HW,2013-04-18 06:27:00,
2013-04-17 23:32:00,46.4,40.0,29.96,North,0,0.0,0.0,78,0.00,,,0.00,WUHU216HW,2013-04-18 06:32:00,
2013-04-17 23:37:00,46.4,40.0,29.96,North,0,0.0,0.0,78,0.00,,,0.00,WUHU216HW,2013-04-18 06:37:00,
2013-04-17 23:42:00,46.4,40.3,29.96,North,0,0.0,0.0,79,0.00,,,0.00,WUHU216HW,2013-04-18 06:42:00,
2013-04-17 23:47:00,46.6,40.5,29.96,North,0,0.0,0.0,79,0.00,,,0.00,WUHU216HW,2013-04-18 06:47:00,
2013-04-17 23:52:00,46.8,40.7,29.96,North,0,0.0,0.0,79,0.00,,,0.00,WUHU216HW,2013-04-18 06:52:00,
2013-04-17 23:57:00,46.8,40.7,29.96,North,0,0.0,0.0,79,0.00,,,0.00,WUHU216HW,2013-04-18 06:57:00,